Pilot Mound, Minnesota
Current Conditions -  °F | °C
As of 6:15 PM on Sunday 23 Nov 2014 (Local Time) from KFKA Reporting Station
Drizzle Drizzle  
Wind Chill: 38°   Ceiling: 100
Heat Index: 45°   Visibility: 1.2mi
Dew Point: 44°   Wind: 14mph
Humidity: 97%   Direction: 310°NW
Pressure: 29.33"   Gusts: NA
Location:  43.8233°N, 92.1103°W
Report Text: KFKA 240015Z AUTO 31012KT 1 1/4SM -DZ OVC001 07/07 A2933 RMK AO2 P0001 T00700066
Loading
Personal Weather Stations






























Interactive Weather Map New forecast layout! Learn more

10-Day Weather Forecast

Advertisements
Track Severe Weather on mobile